createdAt,value
2022-10-11T00:00:22.011Z,79.94
2022-10-11T00:01:21.350Z,80.14
2022-10-11T00:02:21.377Z,79.78
2022-10-11T00:03:21.188Z,80.35
2022-10-11T00:04:21.501Z,80.39
2022-10-11T00:05:21.918Z,80.68
2022-10-11T00:06:21.286Z,80.64
2022-10-11T00:07:21.177Z,80.58
2022-10-11T00:08:21.284Z,80.61
2022-10-11T00:09:21.784Z,80.65
2022-10-11T00:10:22.107Z,80.72
2022-10-11T00:11:20.992Z,81.12
2022-10-11T00:12:21.927Z,81.26
2022-10-11T00:13:20.988Z,81.27
2022-10-11T00:14:21.758Z,81.00
2022-10-11T00:15:21.367Z,81.09
2022-10-11T00:16:22.014Z,80.95
2022-10-11T00:17:20.930Z,80.74
2022-10-11T00:18:21.669Z,80.90
2022-10-11T00:19:21.618Z,81.01
2022-10-11T00:20:22.807Z,81.02
2022-10-11T00:21:21.518Z,80.99
2022-10-11T00:22:21.867Z,81.00
2022-10-11T00:23:21.534Z,80.84
2022-10-11T00:24:21.599Z,81.01
2022-10-11T00:25:20.828Z,81.09
2022-10-11T00:26:20.886Z,81.05
2022-10-11T00:27:21.546Z,80.98
2022-10-11T00:28:21.088Z,81.02
2022-10-11T00:29:20.768Z,81.22
2022-10-11T00:30:21.711Z,81.22
2022-10-11T00:31:21.438Z,81.14
2022-10-11T00:32:21.045Z,81.18
2022-10-11T00:33:20.730Z,81.40
2022-10-11T00:34:20.988Z,81.58
2022-10-11T00:35:20.716Z,81.72
2022-10-11T00:36:23.009Z,81.75
2022-10-11T00:37:20.648Z,81.75
2022-10-11T00:38:21.607Z,81.83
2022-10-11T00:39:20.628Z,81.75
2022-10-11T00:40:20.839Z,81.67
2022-10-11T00:41:20.623Z,81.75
2022-10-11T00:42:21.718Z,82.09
2022-10-11T00:43:20.548Z,82.03
2022-10-11T00:44:20.689Z,81.89
2022-10-11T00:45:20.560Z,82.11
2022-10-11T00:46:20.737Z,82.09
2022-10-11T00:47:20.529Z,82.21
2022-10-11T00:48:21.874Z,82.14
2022-10-11T00:49:20.508Z,82.19
2022-10-11T00:50:20.706Z,82.31
2022-10-11T00:51:21.107Z,82.44
2022-10-11T00:52:21.450Z,82.39
2022-10-11T00:53:21.147Z,82.40
2022-10-11T00:54:23.349Z,82.31
2022-10-11T00:55:21.227Z,82.43
2022-10-11T00:56:21.207Z,82.51
2022-10-11T00:57:21.100Z,82.56
2022-10-11T00:58:21.357Z,82.63
2022-10-11T00:59:21.047Z,82.68
2022-10-11T01:00:21.125Z,82.68
2022-10-11T01:01:20.690Z,82.67
2022-10-11T01:02:20.537Z,82.71
2022-10-11T01:03:20.349Z,82.90
2022-10-11T01:04:22.837Z,82.75
2022-10-11T01:05:29.894Z,82.68
2022-10-11T01:06:21.968Z,82.60
2022-10-11T01:07:41.979Z,82.64
2022-10-11T01:08:20.877Z,82.61
2022-10-11T01:09:21.018Z,82.63
2022-10-11T01:10:21.934Z,82.76
2022-10-11T01:11:21.167Z,82.65
2022-10-11T01:12:20.242Z,82.50
2022-10-11T01:13:23.228Z,82.74
2022-10-11T01:14:20.797Z,82.79
2022-10-11T01:15:21.229Z,82.81
2022-10-11T01:16:20.158Z,82.73
2022-10-11T01:17:42.010Z,82.60
2022-10-11T01:18:20.788Z,82.86
2022-10-11T01:19:20.277Z,82.81
2022-10-11T01:20:20.798Z,82.71
2022-10-11T01:21:20.898Z,82.74
2022-10-11T01:22:20.968Z,82.34
2022-10-11T01:23:42.003Z,82.69
2022-10-11T01:24:20.847Z,82.73
2022-10-11T01:25:20.890Z,82.78
2022-10-11T01:26:20.698Z,82.71
2022-10-11T01:27:20.837Z,82.69
2022-10-11T01:28:20.958Z,82.50
2022-10-11T01:29:20.137Z,82.28
2022-10-11T01:30:19.957Z,82.10
2022-10-11T01:31:20.318Z,82.12
2022-10-11T01:32:20.237Z,82.53
2022-10-11T01:33:20.109Z,82.70
2022-10-11T01:34:19.928Z,82.76
2022-10-11T01:35:40.998Z,82.72
2022-10-11T01:36:19.899Z,82.90
2022-10-11T01:37:21.741Z,82.77
2022-10-11T01:38:19.969Z,82.65
2022-10-11T01:39:20.020Z,82.64
2022-10-11T01:40:20.708Z,82.55
2022-10-11T01:41:41.607Z,82.48
2022-10-11T01:42:22.248Z,82.48
2022-10-11T01:43:20.577Z,82.49
2022-10-11T01:44:20.428Z,82.41
2022-10-11T01:45:41.689Z,82.62
2022-10-11T01:46:19.729Z,82.88
2022-10-11T01:48:29.939Z,82.87
2022-10-11T01:49:29.610Z,82.89
2022-10-11T01:50:29.720Z,83.20
2022-10-11T01:51:29.830Z,83.19
2022-10-11T01:52:29.740Z,83.29
2022-10-11T01:53:29.707Z,83.00
2022-10-11T01:54:44.341Z,83.07
2022-10-11T01:55:31.759Z,83.07
2022-10-11T01:56:30.230Z,83.33
2022-10-11T01:57:29.867Z,83.14
2022-10-11T01:58:29.567Z,82.95
2022-10-11T01:59:29.619Z,82.74
2022-10-11T02:00:29.546Z,82.57
2022-10-11T02:01:29.679Z,82.46
2022-10-11T02:02:28.770Z,82.49
2022-10-11T02:03:29.729Z,82.91
2022-10-11T02:04:29.445Z,82.86
2022-10-11T02:05:51.461Z,82.74
2022-10-11T02:06:29.528Z,82.68
2022-10-11T02:07:29.465Z,82.97
2022-10-11T02:08:29.358Z,83.26
2022-10-11T02:09:29.719Z,83.16
2022-10-11T02:10:29.379Z,83.01
2022-10-11T02:11:29.529Z,83.02
2022-10-11T02:12:29.340Z,83.12
2022-10-11T02:13:30.408Z,83.16
2022-10-11T02:14:29.359Z,83.14
2022-10-11T02:15:29.597Z,83.14
2022-10-11T02:16:29.285Z,83.08
2022-10-11T02:17:31.790Z,83.00
2022-10-11T02:18:29.277Z,82.76
2022-10-11T02:19:29.276Z,83.17
2022-10-11T02:20:29.187Z,83.44
2022-10-11T02:21:29.529Z,83.04
2022-10-11T02:22:29.240Z,83.17
2022-10-11T02:23:29.357Z,83.29
2022-10-11T02:24:29.129Z,83.26
2022-10-11T02:25:29.279Z,83.30
2022-10-11T02:26:28.455Z,83.38
2022-10-11T02:27:29.648Z,83.07
2022-10-11T02:28:29.125Z,83.24
2022-10-11T02:29:29.268Z,83.36
2022-10-11T02:30:29.098Z,83.36
2022-10-11T02:31:29.189Z,83.20
2022-10-11T02:32:29.039Z,83.13
2022-10-11T02:33:28.738Z,83.39
2022-10-11T02:34:28.386Z,83.06
2022-10-11T02:35:29.228Z,83.05
2022-10-11T02:36:28.413Z,83.17
2022-10-11T02:37:30.578Z,83.28
2022-10-11T02:38:29.091Z,83.39
2022-10-11T02:39:29.200Z,83.58
2022-10-11T02:40:28.328Z,83.58
2022-10-11T02:41:28.520Z,83.50
2022-10-11T02:42:28.389Z,83.65
2022-10-11T02:43:49.478Z,83.32
2022-10-11T02:44:28.306Z,83.72
2022-10-11T02:45:28.498Z,83.89
2022-10-11T02:46:28.189Z,83.72
2022-10-11T02:47:28.389Z,83.87
2022-10-11T02:48:28.205Z,83.85
2022-10-11T02:49:28.348Z,84.03
2022-10-11T02:50:28.149Z,83.97
2022-10-11T02:51:28.269Z,83.82
2022-10-11T02:52:28.169Z,84.12
2022-10-11T02:53:29.039Z,84.17
2022-10-11T02:54:28.195Z,84.03
2022-10-11T02:55:28.280Z,84.02
2022-10-11T02:56:28.129Z,84.27
2022-10-11T02:57:28.278Z,84.11
2022-10-11T02:58:28.042Z,83.99
2022-10-11T02:59:28.809Z,84.06
2022-10-11T03:00:28.708Z,84.02
2022-10-11T03:01:28.824Z,83.94
2022-10-11T03:02:28.017Z,84.20
2022-10-11T03:03:28.187Z,84.08
2022-10-11T03:04:28.669Z,84.24
2022-10-11T03:05:28.200Z,84.42
2022-10-11T03:06:27.958Z,84.25
2022-10-11T03:07:28.938Z,84.23
2022-10-11T03:08:28.559Z,83.93
2022-10-11T03:09:29.199Z,83.79
2022-10-11T03:10:28.569Z,83.75
2022-10-11T03:11:28.730Z,83.74
2022-10-11T03:12:28.649Z,84.16
2022-10-11T03:13:28.802Z,84.26
2022-10-11T03:14:28.488Z,84.47
2022-10-11T03:15:28.787Z,84.56
2022-10-11T03:16:27.806Z,84.35
2022-10-11T03:17:36.707Z,84.40
2022-10-11T03:18:29.453Z,84.27
2022-10-11T03:19:28.649Z,84.44
2022-10-11T03:20:28.468Z,84.42
2022-10-11T03:21:28.780Z,84.51
2022-10-11T03:22:27.709Z,84.68
2022-10-11T03:23:28.688Z,84.56
2022-10-11T03:24:28.410Z,84.34
2022-10-11T03:25:28.488Z,84.25
2022-10-11T03:26:28.369Z,84.13
2022-10-11T03:27:28.718Z,84.20
2022-10-11T03:28:28.368Z,84.23
2022-10-11T03:29:28.467Z,84.24
2022-10-11T03:30:28.317Z,84.13
2022-10-11T03:31:28.927Z,84.08
2022-10-11T03:32:28.248Z,84.14
2022-10-11T03:33:27.698Z,84.16
2022-10-11T03:34:28.247Z,84.30
2022-10-11T03:35:30.326Z,84.28
2022-10-11T03:36:28.237Z,84.41
2022-10-11T03:37:29.680Z,84.58
2022-10-11T03:38:27.607Z,84.62
2022-10-11T03:39:27.758Z,84.32
2022-10-11T03:40:27.679Z,84.15
2022-10-11T03:41:27.899Z,84.26
2022-10-11T03:42:27.468Z,84.31
2022-10-11T03:43:27.613Z,84.45
2022-10-11T03:44:27.420Z,84.36
2022-10-11T03:45:29.552Z,84.33
2022-10-11T03:46:27.629Z,84.49
2022-10-11T03:47:28.279Z,84.49
2022-10-11T03:48:27.407Z,84.76
2022-10-11T03:49:27.649Z,84.93
2022-10-11T03:50:27.329Z,84.89
2022-10-11T03:51:28.430Z,84.87
2022-10-11T03:52:27.329Z,84.97
2022-10-11T03:53:27.398Z,84.97
2022-10-11T03:54:27.308Z,84.82
2022-10-11T03:55:27.418Z,84.92
2022-10-11T03:56:27.279Z,84.96
2022-10-11T03:57:29.488Z,84.86
2022-10-11T03:58:27.228Z,84.85
2022-10-11T03:59:29.268Z,84.95
2022-10-11T04:00:27.229Z,85.11
2022-10-11T04:01:28.142Z,85.20
2022-10-11T04:02:27.898Z,85.21
2022-10-11T04:03:28.368Z,85.40
2022-10-11T04:04:27.938Z,85.37
2022-10-11T04:05:29.019Z,85.47
2022-10-11T04:06:27.850Z,85.41
2022-10-11T04:07:28.029Z,85.43
2022-10-11T04:08:27.749Z,85.29
2022-10-11T04:09:32.838Z,85.35
2022-10-11T04:10:27.489Z,85.29
2022-10-11T04:11:27.237Z,85.21
2022-10-11T04:12:27.749Z,85.19
2022-10-11T04:13:27.939Z,85.27
2022-10-11T04:14:27.680Z,85.30
2022-10-11T04:15:27.227Z,85.34
2022-10-11T04:16:28.841Z,85.38
2022-10-11T04:17:27.117Z,85.39
2022-10-11T04:18:27.039Z,85.37
2022-10-11T04:19:27.041Z,85.36
2022-10-11T04:20:26.947Z,85.29
2022-10-11T04:21:28.016Z,85.25
2022-10-11T04:22:27.618Z,85.34
2022-10-11T04:23:27.019Z,85.26
2022-10-11T04:24:27.667Z,85.26
2022-10-11T04:25:27.260Z,85.48
2022-10-11T04:26:29.168Z,85.45
2022-10-11T04:27:31.228Z,85.47
2022-10-11T04:28:26.896Z,85.59
2022-10-11T04:29:32.595Z,85.54
2022-10-11T04:30:37.848Z,85.62
2022-10-11T04:31:29.565Z,85.74
2022-10-11T04:32:26.788Z,85.71
2022-10-11T04:33:26.973Z,85.78
2022-10-11T04:34:26.778Z,85.97
2022-10-11T04:35:27.635Z,86.00
2022-10-11T04:36:27.449Z,85.75
2022-10-11T04:37:26.893Z,85.67
2022-10-11T04:38:27.369Z,85.81
2022-10-11T04:39:29.349Z,85.81
2022-10-11T04:40:26.768Z,86.13
2022-10-11T04:41:26.839Z,86.26
2022-10-11T04:42:27.359Z,86.35
2022-10-11T04:43:28.399Z,86.30
2022-10-11T04:44:27.179Z,86.11
2022-10-11T04:45:26.939Z,86.22
2022-10-11T04:46:26.781Z,86.43
2022-10-11T04:47:26.890Z,86.39
2022-10-11T04:48:26.769Z,86.31
2022-10-11T04:49:26.781Z,86.43
2022-10-11T04:50:26.819Z,86.28
2022-10-11T04:51:29.069Z,86.17
2022-10-11T04:52:26.677Z,86.28
2022-10-11T04:53:26.826Z,86.37
2022-10-11T04:54:26.508Z,86.41
2022-10-11T04:55:26.989Z,86.51
2022-10-11T04:56:26.700Z,86.60
2022-10-11T04:57:27.721Z,86.62
2022-10-11T04:58:27.809Z,86.73
2022-10-11T04:59:26.719Z,86.80
2022-10-11T05:00:26.739Z,86.58
2022-10-11T05:01:27.477Z,86.60
2022-10-11T05:02:26.458Z,86.50
2022-10-11T05:03:26.579Z,86.39
2022-10-11T05:04:26.368Z,86.35
2022-10-11T05:05:26.488Z,86.45
2022-10-11T05:06:27.087Z,86.49
2022-10-11T05:07:27.209Z,86.38
2022-10-11T05:08:26.970Z,86.53
2022-10-11T05:09:26.951Z,86.37
2022-10-11T05:10:26.275Z,86.29
2022-10-11T05:11:26.541Z,86.16
2022-10-11T05:12:26.339Z,86.25
2022-10-11T05:13:26.819Z,86.29
2022-10-11T05:14:26.267Z,86.33
2022-10-11T05:15:26.308Z,86.22
2022-10-11T05:16:26.380Z,86.38
2022-10-11T05:17:26.396Z,86.29
2022-10-11T05:18:26.237Z,86.45
2022-10-11T05:19:28.498Z,86.57
2022-10-11T05:20:26.216Z,86.42
2022-10-11T05:21:26.329Z,86.38
2022-10-11T05:22:26.159Z,86.25
2022-10-11T05:23:26.280Z,86.22
2022-10-11T05:24:26.197Z,86.32
2022-10-11T05:25:26.449Z,86.39
2022-10-11T05:26:26.228Z,86.50
2022-10-11T05:27:26.263Z,86.44
2022-10-11T05:28:26.355Z,86.50
2022-10-11T05:29:32.650Z,86.80
2022-10-11T05:30:30.699Z,86.63
2022-10-11T05:31:26.118Z,86.79
2022-10-11T05:32:28.169Z,86.71
2022-10-11T05:33:26.060Z,86.60
2022-10-11T05:34:26.810Z,86.66
2022-10-11T05:35:26.637Z,86.63
2022-10-11T05:36:26.059Z,86.38
2022-10-11T05:37:25.929Z,86.31
2022-10-11T05:38:25.988Z,86.30
2022-10-11T05:39:26.790Z,86.43
2022-10-11T05:40:26.456Z,86.46
2022-10-11T05:41:25.897Z,86.34
2022-10-11T05:42:25.949Z,86.17
2022-10-11T05:43:25.866Z,86.32
2022-10-11T05:44:26.638Z,86.38
2022-10-11T05:45:25.856Z,86.43
2022-10-11T05:46:26.719Z,86.34
2022-10-11T05:47:25.790Z,86.43
2022-10-11T05:48:27.940Z,86.31
2022-10-11T05:49:26.458Z,86.29
2022-10-11T05:50:26.546Z,86.35
2022-10-11T05:51:25.779Z,86.15
2022-10-11T05:52:28.060Z,86.23
2022-10-11T05:53:26.351Z,86.21
2022-10-11T05:54:26.036Z,86.34
2022-10-11T05:55:25.909Z,86.38
2022-10-11T05:56:25.914Z,86.20
2022-10-11T05:57:25.860Z,86.07
2022-10-11T05:58:26.828Z,86.16
2022-10-11T05:59:25.758Z,86.30
2022-10-11T06:00:25.890Z,86.32
2022-10-11T06:01:25.765Z,86.23
2022-10-11T06:02:26.109Z,86.14
2022-10-11T06:03:25.812Z,86.29
2022-10-11T06:04:28.228Z,86.30
2022-10-11T06:05:25.560Z,86.22
2022-10-11T06:06:25.708Z,86.22
2022-10-11T06:07:25.537Z,86.26
2022-10-11T06:08:28.019Z,86.33
2022-10-11T06:09:26.909Z,86.39
2022-10-11T06:10:25.658Z,86.33
2022-10-11T06:11:25.467Z,86.19
2022-10-11T06:12:25.579Z,86.34
2022-10-11T06:13:25.469Z,86.54
2022-10-11T06:14:25.628Z,86.62
2022-10-11T06:15:26.542Z,86.65
2022-10-11T06:16:25.558Z,86.68
2022-10-11T06:17:25.538Z,86.52
2022-10-11T06:18:25.509Z,86.54
2022-10-11T06:19:25.456Z,86.59
2022-10-11T06:20:25.622Z,86.63
2022-10-11T06:21:25.458Z,86.57
2022-10-11T06:22:25.627Z,86.52
2022-10-11T06:23:25.519Z,86.48
2022-10-11T06:24:25.471Z,86.57
2022-10-11T06:25:25.579Z,86.56
2022-10-11T06:26:25.479Z,86.68
2022-10-11T06:27:25.441Z,86.75
2022-10-11T06:28:26.224Z,86.96
2022-10-11T06:29:25.990Z,86.95
2022-10-11T06:30:26.629Z,87.02
2022-10-11T06:31:58.549Z,86.72
2022-10-11T06:33:34.650Z,86.96
2022-10-11T06:34:34.541Z,86.97
2022-10-11T06:35:37.131Z,87.16
2022-10-11T06:36:35.560Z,87.18
2022-10-11T06:37:34.752Z,87.04
2022-10-11T06:38:34.531Z,86.91
2022-10-11T06:39:34.559Z,86.75
2022-10-11T06:40:34.471Z,86.57
2022-10-11T06:41:34.898Z,86.54
2022-10-11T06:42:34.732Z,86.71
2022-10-11T06:43:34.515Z,86.96
2022-10-11T06:44:34.451Z,86.84
2022-10-11T06:45:34.911Z,86.79
2022-10-11T06:46:34.810Z,86.91
2022-10-11T06:47:34.370Z,86.95
2022-10-11T06:48:35.762Z,87.04
2022-10-11T06:49:34.412Z,87.23
2022-10-11T06:50:57.999Z,87.30
2022-10-11T06:51:35.422Z,87.25
2022-10-11T06:52:34.781Z,87.07
2022-10-11T06:53:34.480Z,86.98
2022-10-11T06:54:34.563Z,87.01
2022-10-11T06:55:34.863Z,87.03
2022-10-11T06:56:34.521Z,87.06
2022-10-11T06:57:34.603Z,87.09
2022-10-11T06:58:34.530Z,87.06
2022-10-11T06:59:36.952Z,87.20
2022-10-11T07:00:34.542Z,86.84
2022-10-11T07:01:41.920Z,86.65
2022-10-11T07:02:34.445Z,86.42
2022-10-11T07:03:34.502Z,86.35
2022-10-11T07:04:36.062Z,86.67
2022-10-11T07:05:35.032Z,86.85
2022-10-11T07:06:35.810Z,86.58
2022-10-11T07:07:34.528Z,86.27
2022-10-11T07:08:34.422Z,86.28
2022-10-11T07:09:36.482Z,86.32
2022-10-11T07:10:35.047Z,86.48
2022-10-11T07:11:35.130Z,86.48
2022-10-11T07:12:34.460Z,86.47
2022-10-11T07:13:34.502Z,86.42
2022-10-11T07:14:34.152Z,86.63
2022-10-11T07:15:34.367Z,86.62
2022-10-11T07:16:34.040Z,86.79
2022-10-11T07:17:34.033Z,86.81
2022-10-11T07:18:34.734Z,86.69
2022-10-11T07:19:34.174Z,86.38
2022-10-11T07:20:37.051Z,86.00
2022-10-11T07:21:34.179Z,85.61
2022-10-11T07:22:33.943Z,85.64
2022-10-11T07:23:39.057Z,85.78
2022-10-11T07:24:35.892Z,85.04
2022-10-11T07:25:36.133Z,84.14
2022-10-11T07:26:38.907Z,84.80
2022-10-11T07:27:36.296Z,85.15
2022-10-11T07:28:33.885Z,84.87
2022-10-11T07:29:33.844Z,84.70
2022-10-11T07:30:33.801Z,84.50
2022-10-11T07:31:35.000Z,84.53
2022-10-11T07:32:34.443Z,83.06
2022-10-11T07:33:33.770Z,81.89
2022-10-11T07:34:33.902Z,81.81
2022-10-11T07:35:34.558Z,81.77
2022-10-11T07:36:33.852Z,80.89
2022-10-11T07:37:41.462Z,80.19
2022-10-11T07:38:35.061Z,79.12
2022-10-11T07:39:33.802Z,78.99
2022-10-11T07:40:33.864Z,78.54
2022-10-11T07:41:33.737Z,78.80
2022-10-11T07:42:33.756Z,79.27
2022-10-11T07:43:33.747Z,78.11
2022-10-11T07:44:33.701Z,77.97
2022-10-11T07:45:33.864Z,78.14
2022-10-11T07:46:34.191Z,77.89
2022-10-11T07:47:33.652Z,77.77
2022-10-11T07:48:33.684Z,78.11
2022-10-11T07:49:33.862Z,78.27
2022-10-11T07:50:33.665Z,78.19
2022-10-11T07:51:33.831Z,78.33
2022-10-11T07:52:33.652Z,78.07
2022-10-11T07:53:33.750Z,78.28
2022-10-11T07:54:33.686Z,78.74
2022-10-11T07:55:33.741Z,78.77
2022-10-11T07:56:33.572Z,78.52
2022-10-11T07:57:33.532Z,77.94
2022-10-11T07:58:33.713Z,78.25
2022-10-11T07:59:33.462Z,78.02
2022-10-11T08:00:33.369Z,78.10
2022-10-11T08:01:33.510Z,78.15
2022-10-11T08:02:33.424Z,77.72
2022-10-11T08:03:34.081Z,76.32
2022-10-11T08:04:33.394Z,76.71
2022-10-11T08:05:33.372Z,76.81
2022-10-11T08:06:33.293Z,76.31
2022-10-11T08:07:33.321Z,76.62
2022-10-11T08:08:33.262Z,76.18
2022-10-11T08:09:33.349Z,76.73
2022-10-11T08:10:33.263Z,76.69
2022-10-11T08:11:33.446Z,76.27
2022-10-11T08:12:33.251Z,76.57
2022-10-11T08:13:33.236Z,76.07
2022-10-11T08:14:33.215Z,76.53
2022-10-11T08:15:33.346Z,76.03
2022-10-11T08:16:33.195Z,75.63
2022-10-11T08:17:33.554Z,75.57
2022-10-11T08:18:33.135Z,76.02
2022-10-11T08:19:33.193Z,76.01
2022-10-11T08:20:33.344Z,75.88
2022-10-11T08:21:33.186Z,76.28
2022-10-11T08:22:33.069Z,75.81
2022-10-11T08:23:33.802Z,75.42
2022-10-11T08:24:38.184Z,75.25
2022-10-11T08:25:34.052Z,75.11
2022-10-11T08:26:33.303Z,75.37
2022-10-11T08:27:33.831Z,75.39
2022-10-11T08:28:33.538Z,75.18
2022-10-11T08:29:33.174Z,74.97
2022-10-11T08:30:33.656Z,75.11
2022-10-11T08:31:33.131Z,75.26
2022-10-11T08:32:33.123Z,75.90
2022-10-11T08:33:33.392Z,75.95
2022-10-11T08:34:32.986Z,75.14
2022-10-11T08:35:33.305Z,75.27
2022-10-11T08:36:33.142Z,74.84
2022-10-11T08:37:32.900Z,74.89
2022-10-11T08:38:32.985Z,74.72
2022-10-11T08:39:32.942Z,74.69
2022-10-11T08:40:36.550Z,74.79
2022-10-11T08:41:43.252Z,75.31
2022-10-11T08:42:33.973Z,75.81
2022-10-11T08:43:33.402Z,75.80
2022-10-11T08:44:51.896Z,74.96
2022-10-11T08:45:33.862Z,74.33
2022-10-11T08:46:32.771Z,74.29
2022-10-11T08:47:32.982Z,74.47
2022-10-11T08:48:32.897Z,74.16
2022-10-11T08:49:32.743Z,74.35
2022-10-11T08:50:33.092Z,74.35
2022-10-11T08:52:12.353Z,74.69
2022-10-11T08:52:33.735Z,74.42
2022-10-11T08:53:32.687Z,74.65
2022-10-11T08:54:33.513Z,74.91
2022-10-11T08:55:34.123Z,74.32
2022-10-11T08:56:41.405Z,74.29
2022-10-11T08:57:33.755Z,74.84
2022-10-11T08:58:34.832Z,75.92
2022-10-11T08:59:32.753Z,74.39
2022-10-11T09:00:32.632Z,73.84
2022-10-11T09:01:33.245Z,74.04
2022-10-11T09:02:55.634Z,73.90
2022-10-11T09:03:36.120Z,74.96
2022-10-11T09:04:44.164Z,74.33
2022-10-11T09:05:45.482Z,73.39
2022-10-11T09:08:24.412Z,73.99
2022-10-11T09:09:20.671Z,73.99
2022-10-11T09:09:42.188Z,73.49
2022-10-11T09:10:44.243Z,73.10
2022-10-11T09:11:45.428Z,73.16
2022-10-11T09:12:41.826Z,73.33
2022-10-11T09:13:42.318Z,73.49
2022-10-11T09:14:45.360Z,73.27
2022-10-11T09:15:51.380Z,72.77
2022-10-11T09:16:41.558Z,72.55
2022-10-11T09:17:45.846Z,72.87
2022-10-11T09:18:47.920Z,72.91
2022-10-11T09:19:49.988Z,72.94
2022-10-11T09:21:18.324Z,73.66
2022-10-11T09:21:46.127Z,73.89
2022-10-11T09:22:42.048Z,74.00
2022-10-11T09:23:43.705Z,73.36
2022-10-11T09:24:43.512Z,73.63
2022-10-11T09:25:42.079Z,73.29
2022-10-11T09:26:40.758Z,73.24
2022-10-11T09:28:02.452Z,72.60
2022-10-11T09:28:46.271Z,72.59
2022-10-11T09:29:44.782Z,72.06
2022-10-11T09:30:43.808Z,71.42
2022-10-11T09:33:17.684Z,71.42
2022-10-11T09:34:12.698Z,71.43
2022-10-11T09:35:05.934Z,71.75
2022-10-11T09:36:07.508Z,72.36
2022-10-11T09:36:59.355Z,72.14
2022-10-11T09:38:00.206Z,71.65
2022-10-11T09:39:07.662Z,72.08
2022-10-11T09:40:23.744Z,71.92
2022-10-11T09:40:59.052Z,71.59
2022-10-11T09:41:58.997Z,72.49
2022-10-11T09:43:12.197Z,70.94
2022-10-11T09:44:02.847Z,71.06
2022-10-11T09:45:14.145Z,71.93
2022-10-11T09:46:02.528Z,71.54
2022-10-11T09:47:02.155Z,70.56
2022-10-11T09:48:06.651Z,71.93
2022-10-11T09:49:06.926Z,71.68
2022-10-11T09:49:59.738Z,71.25
2022-10-11T09:50:59.193Z,71.62
2022-10-11T09:51:59.246Z,71.81
2022-10-11T09:52:59.195Z,72.03
2022-10-11T09:54:07.696Z,72.11
2022-10-11T09:54:58.928Z,71.61
2022-10-11T09:55:59.869Z,70.79
2022-10-11T09:56:59.056Z,70.21
2022-10-11T09:58:01.146Z,70.21
2022-10-11T09:58:59.224Z,70.88
2022-10-11T09:59:59.128Z,70.55
2022-10-11T10:00:58.652Z,70.67
2022-10-11T10:01:59.565Z,70.72
2022-10-11T10:02:58.649Z,72.13
2022-10-11T10:03:59.244Z,71.07
2022-10-11T10:04:59.226Z,71.61
2022-10-11T10:05:59.327Z,70.84
2022-10-11T10:06:59.046Z,70.80
2022-10-11T10:08:04.798Z,70.20
2022-10-11T10:08:58.964Z,70.34
2022-10-11T10:10:00.728Z,69.80
2022-10-11T10:11:07.913Z,69.88
2022-10-11T10:11:58.576Z,70.21
2022-10-11T10:13:07.048Z,68.68
2022-10-11T10:14:08.468Z,68.24
2022-10-11T10:14:58.909Z,68.23
2022-10-11T10:16:00.036Z,68.81
2022-10-11T10:17:04.468Z,70.69
2022-10-11T10:17:58.844Z,67.97
2022-10-11T10:18:59.249Z,67.82
2022-10-11T10:19:58.627Z,67.87
2022-10-11T10:20:58.944Z,67.60
2022-10-11T10:21:58.408Z,66.77
2022-10-11T10:22:58.706Z,67.37
2022-10-11T10:23:58.965Z,67.47
2022-10-11T10:24:59.919Z,67.94
2022-10-11T10:25:59.228Z,68.18
2022-10-11T10:26:58.398Z,67.54
2022-10-11T10:27:58.504Z,68.37
2022-10-11T10:28:58.482Z,68.99
2022-10-11T10:30:06.511Z,67.87
2022-10-11T10:31:02.690Z,67.08
2022-10-11T10:32:13.795Z,66.24
2022-10-11T10:32:59.231Z,65.12
2022-10-11T10:33:58.439Z,65.54
2022-10-11T10:34:58.389Z,66.62
2022-10-11T10:35:59.420Z,66.28
2022-10-11T10:36:58.270Z,66.17
2022-10-11T10:37:59.716Z,64.85
2022-10-11T10:38:58.289Z,64.38
2022-10-11T10:39:58.178Z,64.75
2022-10-11T10:40:58.166Z,65.62
2022-10-11T10:41:58.198Z,65.73
2022-10-11T10:42:58.101Z,64.77
2022-10-11T10:43:58.180Z,64.73
2022-10-11T10:44:58.108Z,64.59
2022-10-11T10:46:00.301Z,63.88
2022-10-11T10:46:58.079Z,63.87
2022-10-11T10:47:58.840Z,65.92
2022-10-11T10:49:59.858Z,64.12
2022-10-11T10:50:57.971Z,64.00
2022-10-11T10:51:58.061Z,64.40
2022-10-11T10:52:58.821Z,64.61
2022-10-11T10:53:58.083Z,64.32
2022-10-11T10:55:02.743Z,64.62
2022-10-11T10:56:00.711Z,63.18
2022-10-11T10:56:58.162Z,63.97
2022-10-11T10:58:01.583Z,64.07
2022-10-11T10:58:58.032Z,65.42
2022-10-11T11:00:00.034Z,65.12
2022-10-11T11:00:57.862Z,64.78
2022-10-11T11:02:06.753Z,65.99
2022-10-11T11:02:58.924Z,65.67
2022-10-11T11:03:57.872Z,66.52
2022-10-11T11:05:00.814Z,64.23
2022-10-11T11:05:57.843Z,62.78
2022-10-11T11:06:58.154Z,62.33
2022-10-11T11:07:57.818Z,62.89
2022-10-11T11:08:58.942Z,63.86
2022-10-11T11:09:57.812Z,62.25
2022-10-11T11:10:58.504Z,62.72
2022-10-11T11:12:02.176Z,62.67
2022-10-11T11:12:57.711Z,61.93
2022-10-11T11:13:57.753Z,62.63
2022-10-11T11:14:57.765Z,62.65
2022-10-11T11:15:57.876Z,61.77
2022-10-11T11:16:57.724Z,62.34
2022-10-11T11:17:57.972Z,60.56
2022-10-11T11:18:58.752Z,59.88
2022-10-11T11:19:57.949Z,59.74
2022-10-11T11:20:57.714Z,59.90
2022-10-11T11:21:57.786Z,60.69
2022-10-11T11:22:58.754Z,60.67
2022-10-11T11:23:58.045Z,62.82
2022-10-11T11:24:57.565Z,62.13
2022-10-11T11:25:57.715Z,62.01
2022-10-11T11:26:57.507Z,60.29
2022-10-11T11:27:57.610Z,60.04
2022-10-11T11:28:57.541Z,59.49
2022-10-11T11:29:57.755Z,59.77
2022-10-11T11:31:18.549Z,60.65
2022-10-11T11:32:18.516Z,59.42
2022-10-11T11:32:57.476Z,58.89
2022-10-11T11:33:57.675Z,59.24
2022-10-11T11:34:58.137Z,60.20
2022-10-11T11:35:58.395Z,60.59
2022-10-11T11:36:57.686Z,61.24
2022-10-11T11:38:02.528Z,58.81
2022-10-11T11:38:58.363Z,58.73
2022-10-11T11:39:57.396Z,58.92
2022-10-11T11:40:57.326Z,59.95
2022-10-11T11:41:57.407Z,60.06
2022-10-11T11:42:57.347Z,59.66
2022-10-11T11:43:57.445Z,58.30
2022-10-11T11:44:57.327Z,58.65
2022-10-11T11:45:57.366Z,58.96
2022-10-11T11:46:57.239Z,59.14
2022-10-11T11:47:57.679Z,58.01
2022-10-11T11:49:31.475Z,58.56
2022-10-11T11:49:57.299Z,57.99
2022-10-11T11:50:57.725Z,58.01
2022-10-11T11:51:57.167Z,57.77
2022-10-11T11:52:58.168Z,57.60
2022-10-11T11:53:57.159Z,57.93
2022-10-11T11:55:01.445Z,58.56
2022-10-11T11:56:00.408Z,57.04
2022-10-11T11:56:57.237Z,58.23
2022-10-11T11:57:57.378Z,58.01
2022-10-11T11:58:57.249Z,58.64
2022-10-11T11:59:57.059Z,58.29
2022-10-11T12:01:02.858Z,58.44
2022-10-11T12:01:57.981Z,58.21
2022-10-11T12:02:57.260Z,57.18
2022-10-11T12:03:57.856Z,56.81
2022-10-11T12:05:00.648Z,56.21
2022-10-11T12:05:57.231Z,56.60
2022-10-11T12:07:14.964Z,57.09
2022-10-11T12:07:58.200Z,55.12
2022-10-11T12:08:58.861Z,55.66
2022-10-11T12:10:00.260Z,56.02
2022-10-11T12:11:01.603Z,55.64
2022-10-11T12:11:58.991Z,56.08
2022-10-11T12:13:17.296Z,54.70
2022-10-11T12:14:05.021Z,55.56
2022-10-11T12:14:57.502Z,55.62
2022-10-11T12:15:57.402Z,56.58
2022-10-11T12:16:58.814Z,56.48
2022-10-11T12:17:59.991Z,55.59
2022-10-11T12:19:12.083Z,55.37
2022-10-11T12:19:57.354Z,55.23
2022-10-11T12:20:57.174Z,54.37
2022-10-11T12:22:00.252Z,53.97
2022-10-11T12:22:57.701Z,54.00
2022-10-11T12:23:56.922Z,53.81
2022-10-11T12:24:56.906Z,54.20
2022-10-11T12:25:57.769Z,54.04
2022-10-11T12:26:57.403Z,54.94
2022-10-11T12:28:01.664Z,54.95
2022-10-11T12:28:56.815Z,55.02
2022-10-11T12:29:57.126Z,53.77
2022-10-11T12:30:56.954Z,54.63
2022-10-11T12:31:57.923Z,53.87
2022-10-11T12:32:56.747Z,54.09
2022-10-11T12:33:57.194Z,54.20
2022-10-11T12:34:58.653Z,54.24
2022-10-11T12:36:05.694Z,54.43
2022-10-11T12:37:03.209Z,54.13
2022-10-11T12:37:58.115Z,54.31
2022-10-11T12:38:57.382Z,55.45
2022-10-11T12:39:57.050Z,54.84
2022-10-11T12:40:56.715Z,54.50
2022-10-11T12:42:01.523Z,54.87
2022-10-11T12:43:04.483Z,53.80
2022-10-11T12:43:57.205Z,53.69
2022-10-11T12:44:56.577Z,53.07
2022-10-11T12:45:57.137Z,53.61
2022-10-11T12:47:07.426Z,53.45
2022-10-11T12:47:56.488Z,53.42
2022-10-11T12:48:56.667Z,53.05
2022-10-11T12:50:01.085Z,53.39
2022-10-11T12:51:00.754Z,53.37
2022-10-11T12:51:57.846Z,52.95
2022-10-11T12:52:56.514Z,53.01
2022-10-11T12:54:21.546Z,53.57
2022-10-11T12:54:57.725Z,54.15
2022-10-11T12:55:59.365Z,54.20
2022-10-11T12:56:56.581Z,54.21
2022-10-11T12:57:56.637Z,54.81